Time;durP1;ratioP1;P1;durP2;ratioP2;P2;SDS_P1;SDS_P2;PMS_P1;PMS_P2;Temp;Humidity;BMP_temperature;BMP_pressure;BME280_temperature;BME280_humidity;BME280_pressure;Samples;Min_cycle;Max_cycle;Signal;HPM_P1;HPM_P2
2023/06/27 00:02:02;;;;;;;2.20;1.20;;;22.40;64.50;;;22.93;nan;100978.25;4991315;28;20996;-68
2023/06/27 00:04:29;;;;;;;1.93;1.30;;;22.40;64.40;;;22.91;nan;100985.53;4991068;28;20586;-67
2023/06/27 00:06:56;;;;;;;7.93;1.23;;;22.30;64.50;;;22.88;nan;100988.59;4990576;28;20653;-67
2023/06/27 00:09:23;;;;;;;1.07;1.03;;;22.30;64.70;;;22.82;nan;100988.47;4985319;28;21046;-67
2023/06/27 00:11:50;;;;;;;1.27;1.20;;;22.20;64.80;;;22.78;nan;100987.19;4984797;28;20997;-66
2023/06/27 00:14:19;;;;;;;1.03;0.90;;;22.20;64.90;;;22.78;nan;100982.72;4985720;28;20630;-68
2023/06/27 00:16:46;;;;;;;1.00;1.00;;;22.20;65.00;;;22.80;nan;100990.50;4984297;28;20674;-67
2023/06/27 00:19:13;;;;;;;1.27;1.27;;;22.20;64.90;;;22.77;nan;100983.69;4986347;28;21178;-69
2023/06/27 00:21:40;;;;;;;1.30;1.20;;;22.20;65.20;;;22.79;nan;100992.31;4987988;28;20634;-68
2023/06/27 00:24:08;;;;;;;1.40;1.30;;;22.20;65.30;;;22.77;nan;100991.69;4987303;28;21173;-69
2023/06/27 00:26:35;;;;;;;1.27;1.17;;;22.20;65.40;;;22.74;nan;100996.53;4989955;28;20666;-67
2023/06/27 00:29:05;;;;;;;1.00;1.00;;;22.20;65.70;;;22.67;nan;100996.44;4990558;28;21236;-67
2023/06/27 00:31:32;;;;;;;0.80;0.80;;;22.10;65.80;;;22.59;nan;100996.50;4984015;28;20644;-68
2023/06/27 00:33:59;;;;;;;0.90;0.90;;;22.10;66.00;;;22.54;nan;100993.50;4990176;28;21178;-67
2023/06/27 00:36:26;;;;;;;0.90;0.83;;;22.00;66.10;;;22.51;nan;100998.38;4983229;28;20682;-68
2023/06/27 00:38:53;;;;;;;0.97;0.97;;;22.00;66.20;;;22.45;nan;100999.91;4961720;28;20677;-67
2023/06/27 00:41:20;;;;;;;1.10;0.90;;;21.90;66.40;;;22.37;nan;101006.13;4989868;28;20618;-67
2023/06/27 00:43:47;;;;;;;1.10;1.10;;;21.80;66.40;;;22.30;nan;100999.00;4958649;28;20680;-68
2023/06/27 00:46:39;;;;;;;2.90;1.20;;;21.80;66.70;;;22.24;nan;101000.56;4996716;28;22218;-68
2023/06/27 00:49:13;;;;;;;1.13;1.10;;;21.70;66.80;;;22.19;nan;100997.59;4996914;28;20642;-68
2023/06/27 00:51:40;;;;;;;1.07;1.07;;;21.70;67.10;;;22.19;nan;101016.19;4973480;28;20659;-69
2023/06/27 00:54:08;;;;;;;3.90;1.20;;;21.70;67.40;;;22.16;nan;101011.25;5008632;28;21056;-68
2023/06/27 00:56:35;;;;;;;1.43;1.33;;;21.60;67.50;;;22.09;nan;101006.78;4992786;28;20752;-67
2023/06/27 00:59:02;;;;;;;1.57;1.20;;;21.60;67.50;;;22.03;nan;101011.00;4972541;28;20618;-67
2023/06/27 01:01:30;;;;;;;1.00;1.00;;;21.50;67.70;;;21.97;nan;101009.03;4981673;28;20622;-68
2023/06/27 01:03:58;;;;;;;1.20;1.20;;;21.50;67.70;;;21.93;nan;101006.91;4957510;28;20626;-68
2023/06/27 01:06:56;;;;;;;1.20;1.10;;;21.40;67.90;;;21.91;nan;101004.44;4990735;28;20662;-68
2023/06/27 01:09:36;;;;;;;1.27;1.17;;;21.40;68.10;;;21.91;nan;101004.44;4990425;28;20649;-68
2023/06/27 01:12:23;;;;;;;1.33;0.93;;;21.40;68.30;;;21.89;nan;101008.25;4987993;28;21220;-68
2023/06/27 01:14:52;;;;;;;1.10;1.10;;;21.40;68.40;;;21.87;nan;101000.44;4978913;28;20649;-67
2023/06/27 01:17:21;;;;;;;1.20;1.10;;;21.40;68.60;;;21.88;nan;101004.75;4965796;28;20870;-67
2023/06/27 01:19:52;;;;;;;1.40;1.00;;;21.40;68.70;;;21.90;nan;101000.09;4970313;28;20680;-68
2023/06/27 01:22:35;;;;;;;1.23;1.10;;;21.40;68.60;;;21.89;nan;101008.25;4989122;28;20640;-68
2023/06/27 01:25:07;;;;;;;1.13;1.07;;;21.40;68.70;;;21.90;nan;101009.88;4967497;28;20627;-68
2023/06/27 01:27:34;;;;;;;0.97;0.97;;;21.40;68.70;;;21.88;nan;101003.94;5000770;28;21238;-66
2023/06/27 01:30:02;;;;;;;1.53;1.17;;;21.40;68.80;;;21.86;nan;101006.78;5009518;28;20662;-68
2023/06/27 01:32:40;;;;;;;1.00;1.00;;;21.30;68.80;;;21.80;nan;101011.91;4990376;28;20984;-68
2023/06/27 01:35:38;;;;;;;1.10;1.00;;;21.30;69.00;;;21.75;nan;100998.31;4972535;28;20618;-68
2023/06/27 01:38:13;;;;;;;0.73;0.73;;;21.20;68.90;;;21.67;nan;101008.97;4988500;28;20712;-66
2023/06/27 01:40:43;;;;;;;1.13;1.13;;;21.20;69.10;;;21.63;nan;101012.00;4990008;28;20641;-68
2023/06/27 01:43:12;;;;;;;0.70;0.70;;;21.10;69.10;;;21.59;nan;100999.25;4974952;28;21218;-67
2023/06/27 01:45:39;;;;;;;1.33;1.20;;;21.10;69.20;;;21.57;nan;101007.34;4992443;28;20666;-67
2023/06/27 01:48:08;;;;;;;1.20;1.10;;;21.00;69.30;;;21.53;nan;101005.22;4967341;28;20623;-67
2023/06/27 01:50:35;;;;;;;0.87;0.87;;;21.00;69.40;;;21.56;nan;100999.56;4995004;28;20668;-67
2023/06/27 01:53:02;;;;;;;0.70;0.70;;;21.10;69.70;;;21.56;nan;100995.09;4985719;28;20638;-69
2023/06/27 01:55:29;;;;;;;1.40;0.93;;;21.10;69.50;;;21.55;nan;100996.06;4990344;28;20675;-68
2023/06/27 01:57:57;;;;;;;1.90;1.80;;;21.00;69.50;;;21.50;nan;101000.25;4987780;28;20630;-68
2023/06/27 02:00:26;;;;;;;0.83;0.83;;;21.00;69.50;;;21.49;nan;100995.94;4970432;28;20606;-67
2023/06/27 02:02:53;;;;;;;0.83;0.83;;;21.00;69.60;;;21.49;nan;100995.94;4971351;28;21251;-68
2023/06/27 02:05:21;;;;;;;1.73;1.57;;;21.00;69.70;;;21.48;nan;100999.59;4986190;28;20669;-67
2023/06/27 02:07:48;;;;;;;1.10;1.10;;;21.00;69.90;;;21.51;nan;100986.81;4989516;28;20629;-68
2023/06/27 02:10:15;;;;;;;1.53;1.00;;;21.00;70.10;;;21.55;nan;100995.28;4984793;28;20669;-68
2023/06/27 02:12:42;;;;;;;2.27;1.17;;;21.00;69.70;;;21.54;nan;101002.41;4981435;28;20631;-68
2023/06/27 02:15:09;;;;;;;0.80;0.80;;;21.00;69.50;;;21.50;nan;100994.94;4986565;28;20630;-68
2023/06/27 02:17:36;;;;;;;1.10;1.00;;;21.00;69.60;;;21.44;nan;100999.13;4987034;28;21233;-67
2023/06/27 02:20:04;;;;;;;1.23;1.13;;;20.90;69.80;;;21.40;nan;100994.34;4985632;28;20689;-68
2023/06/27 02:22:31;;;;;;;0.90;0.90;;;20.90;69.90;;;21.38;nan;100994.47;4978412;28;20621;-68
2023/06/27 02:24:58;;;;;;;1.90;1.30;;;20.90;70.20;;;21.42;nan;100993.13;4989460;28;20671;-68
2023/06/27 02:27:25;;;;;;;1.30;1.20;;;20.90;70.20;;;21.45;nan;100999.94;4989261;28;20643;-67
2023/06/27 02:29:52;;;;;;;1.13;0.80;;;21.00;70.00;;;21.44;nan;100993.00;4990933;28;20641;-67
2023/06/27 02:32:19;;;;;;;1.37;1.10;;;20.90;70.10;;;21.41;nan;100994.16;4989842;28;20975;-68
2023/06/27 02:34:46;;;;;;;0.83;0.83;;;20.90;70.30;;;21.40;nan;100994.34;5002400;28;20652;-67
2023/06/27 02:37:13;;;;;;;2.10;1.03;;;20.90;70.40;;;21.34;nan;100992.34;4988439;28;20669;-67
2023/06/27 02:39:40;;;;;;;0.90;0.90;;;20.80;70.30;;;21.26;nan;101001.16;4990465;28;20634;-68
2023/06/27 02:42:07;;;;;;;0.90;0.90;;;20.80;70.50;;;21.21;nan;100998.19;4989462;28;20618;-68
2023/06/27 02:44:34;;;;;;;1.67;1.10;;;20.70;70.60;;;21.18;nan;100995.88;4985042;28;20649;-68
2023/06/27 02:47:01;;;;;;;1.00;1.00;;;20.70;70.80;;;21.10;nan;100990.59;4988012;28;20666;-68
2023/06/27 02:49:28;;;;;;;0.93;0.93;;;20.60;71.10;;;21.04;nan;100995.75;4991783;28;20622;-67
2023/06/27 02:51:55;;;;;;;2.40;0.90;;;20.50;71.50;;;20.96;nan;100993.91;4990650;28;20669;-67
2023/06/27 02:54:22;;;;;;;0.83;0.83;;;20.50;71.60;;;20.89;nan;100998.25;5006305;28;20625;-68
2023/06/27 02:56:49;;;;;;;1.00;1.00;;;20.40;71.90;;;20.81;nan;100996.41;4990505;28;20681;-68
2023/06/27 02:59:16;;;;;;;1.07;0.97;;;20.30;72.10;;;20.76;nan;100993.41;4987321;28;20634;-68
2023/06/27 03:01:43;;;;;;;1.17;1.17;;;20.30;72.30;;;20.74;nan;100999.91;4989902;28;20634;-68
2023/06/27 03:04:10;;;;;;;0.90;0.90;;;20.20;72.30;;;20.71;nan;100998.41;4986969;28;20646;-67
2023/06/27 03:06:44;;;;;;;0.77;0.77;;;20.20;72.10;;;20.65;nan;100998.25;4973269;28;20700;-67
2023/06/27 03:09:11;;;;;;;1.17;1.07;;;20.20;72.20;;;20.66;nan;100999.88;4991723;28;20633;-68
2023/06/27 03:11:38;;;;;;;0.80;0.80;;;20.20;72.10;;;20.63;nan;101002.88;4986236;28;20642;-68
2023/06/27 03:14:06;;;;;;;1.33;1.23;;;20.10;71.90;;;20.61;nan;101002.22;4990302;28;20630;-67
2023/06/27 03:16:32;;;;;;;1.00;1.00;;;20.10;71.90;;;20.62;nan;101004.69;4991470;28;20684;-68
2023/06/27 03:18:59;;;;;;;1.23;0.80;;;20.10;71.90;;;20.65;nan;101008.84;4993772;28;20661;-68
2023/06/27 03:21:26;;;;;;;1.30;1.20;;;20.20;72.00;;;20.64;nan;101013.31;4990336;28;21017;-66
2023/06/27 03:23:53;;;;;;;1.03;0.80;;;20.20;72.10;;;20.64;nan;101020.44;4997240;28;20626;-68
2023/06/27 03:26:24;;;;;;;0.93;0.93;;;20.20;72.00;;;20.62;nan;101022.44;5002280;28;21267;-67
2023/06/27 03:28:51;;;;;;;1.00;1.00;;;20.20;72.10;;;20.58;nan;101021.94;4992273;28;20700;-68
2023/06/27 03:31:18;;;;;;;0.87;0.87;;;20.10;72.20;;;20.58;nan;101026.41;4992230;28;20661;-66
2023/06/27 03:33:46;;;;;;;0.70;0.70;;;20.10;72.30;;;20.54;nan;101025.09;4991967;28;20644;-67
2023/06/27 03:36:13;;;;;;;0.70;0.70;;;20.10;72.30;;;20.52;nan;101027.06;5010821;28;20677;-66
2023/06/27 03:38:40;;;;;;;1.00;0.80;;;20.00;72.30;;;20.44;nan;101025.25;4997043;28;20642;-67
2023/06/27 03:41:07;;;;;;;1.13;0.87;;;20.00;72.40;;;20.41;nan;101028.22;4992513;28;20621;-66
2023/06/27 03:43:34;;;;;;;0.60;0.60;;;19.90;72.50;;;20.35;nan;101017.44;4990624;28;20638;-67
2023/06/27 03:46:01;;;;;;;1.20;1.10;;;19.90;72.90;;;20.32;nan;101018.59;4992014;28;20694;-67
2023/06/27 03:48:28;;;;;;;0.60;0.60;;;19.80;72.90;;;20.30;nan;101022.41;4994175;28;20648;-66
2023/06/27 03:50:56;;;;;;;0.80;0.80;;;19.80;72.80;;;20.23;nan;101021.41;4993284;28;20614;-67
2023/06/27 03:53:23;;;;;;;0.83;0.80;;;19.80;72.90;;;20.20;nan;101021.69;4990588;28;20646;-67
2023/06/27 03:55:50;;;;;;;0.90;0.90;;;19.70;72.90;;;20.20;nan;101030.50;4991569;28;20665;-66
2023/06/27 03:58:17;;;;;;;1.07;1.07;;;19.80;73.50;;;20.20;nan;101030.50;4990770;28;21192;-67
2023/06/27 04:00:44;;;;;;;0.87;0.87;;;19.70;73.00;;;20.22;nan;101032.97;4991896;28;20634;-67
2023/06/27 04:03:11;;;;;;;0.70;0.70;;;19.80;73.30;;;20.21;nan;101034.78;4991350;28;20626;-66
2023/06/27 04:05:38;;;;;;;0.83;0.83;;;19.70;73.30;;;20.25;nan;101037.97;4989772;28;20668;-67
2023/06/27 04:08:06;;;;;;;1.00;1.00;;;19.80;73.30;;;20.26;nan;101032.50;4987250;28;20654;-67
2023/06/27 04:10:33;;;;;;;1.00;0.90;;;19.80;73.10;;;20.30;nan;101039.13;4990570;28;20638;-67
2023/06/27 04:13:00;;;;;;;0.97;0.97;;;19.80;73.00;;;20.32;nan;101052.22;4991773;28;20618;-67
2023/06/27 04:15:27;;;;;;;1.00;1.00;;;19.80;73.00;;;20.31;nan;101045.28;4971983;28;20705;-67
2023/06/27 04:17:53;;;;;;;0.80;0.80;;;19.80;72.70;;;20.29;nan;101040.13;4991099;28;20650;-67
2023/06/27 04:20:21;;;;;;;1.37;1.27;;;19.80;72.70;;;20.27;nan;101044.78;4987296;28;20707;-67
2023/06/27 04:22:48;;;;;;;0.97;0.97;;;19.80;72.60;;;20.26;nan;101040.44;4989082;28;20622;-66
2023/06/27 04:25:15;;;;;;;0.70;0.70;;;19.80;72.70;;;20.32;nan;101047.75;4992579;28;20663;-67
2023/06/27 04:27:42;;;;;;;1.30;1.20;;;19.90;72.70;;;20.39;nan;101046.09;4987082;28;20646;-67
2023/06/27 04:30:09;;;;;;;1.00;1.00;;;19.90;72.70;;;20.43;nan;101044.78;4991492;28;21050;-67
2023/06/27 04:32:37;;;;;;;0.80;0.80;;;20.00;72.60;;;20.50;nan;101058.22;4992834;28;20645;-67
2023/06/27 04:35:04;;;;;;;1.60;1.40;;;20.00;72.50;;;20.53;nan;101050.75;4973465;28;20642;-67
2023/06/27 04:37:32;;;;;;;0.83;0.83;;;20.10;72.50;;;20.53;nan;101057.91;4991668;28;20681;-67
2023/06/27 04:39:59;;;;;;;0.80;0.80;;;20.00;72.60;;;20.53;nan;101060.56;4988195;28;21098;-67
2023/06/27 04:42:26;;;;;;;1.57;1.00;;;20.00;72.80;;;20.55;nan;101055.91;4983337;28;20618;-67
2023/06/27 04:44:55;;;;;;;0.93;0.93;;;20.10;73.00;;;20.54;nan;101060.38;4971801;28;20669;-67
2023/06/27 04:47:23;;;;;;;0.87;0.87;;;20.10;73.10;;;20.55;nan;101055.91;4989662;28;20620;-67
2023/06/27 04:49:50;;;;;;;0.80;0.80;;;20.10;73.20;;;20.55;nan;101058.56;5000598;28;20699;-66
2023/06/27 04:52:17;;;;;;;5.10;1.27;;;20.10;73.10;;;20.56;nan;101061.03;4996649;28;21012;-67
2023/06/27 04:54:49;;;;;;;2.93;1.10;;;20.10;73.30;;;20.64;nan;101060.22;5009870;28;21022;-66
2023/06/27 04:57:16;;;;;;;0.70;0.70;;;20.20;73.40;;;20.71;nan;101063.88;4991885;28;20720;-66
2023/06/27 04:59:46;;;;;;;1.00;1.00;;;20.20;73.10;;;20.76;nan;101066.88;4973219;28;20619;-68
2023/06/27 05:02:13;;;;;;;3.23;1.10;;;20.30;73.00;;;20.84;nan;101064.22;4965858;28;21017;-69
2023/06/27 05:04:40;;;;;;;4.10;0.80;;;20.30;72.80;;;20.88;nan;101060.22;4990238;28;20622;-66
2023/06/27 05:07:07;;;;;;;1.27;1.07;;;20.40;72.60;;;20.87;nan;101062.03;4989880;28;20666;-67
2023/06/27 05:09:34;;;;;;;0.80;0.80;;;20.40;72.40;;;20.90;nan;101068.84;4990333;28;20610;-68
2023/06/27 05:12:01;;;;;;;1.27;1.00;;;20.40;72.50;;;20.90;nan;101066.19;4990156;28;21169;-70
2023/06/27 05:14:28;;;;;;;0.83;0.83;;;20.50;72.60;;;20.94;nan;101066.69;5001484;28;20632;-68
2023/06/27 05:16:55;;;;;;;1.00;1.00;;;20.50;72.80;;;20.99;nan;101067.00;4990420;28;20674;-68
2023/06/27 05:19:22;;;;;;;1.00;0.90;;;20.50;72.80;;;21.08;nan;101072.19;4989183;28;20631;-66
2023/06/27 05:21:49;;;;;;;0.83;0.83;;;20.60;72.70;;;21.10;nan;101075.50;4988312;28;20989;-68
2023/06/27 05:24:19;;;;;;;1.10;0.90;;;20.60;72.80;;;21.20;nan;101072.66;4984239;28;21020;-66
2023/06/27 05:26:46;;;;;;;0.93;0.93;;;20.70;72.90;;;21.29;nan;101058.38;4985531;28;20654;-67
2023/06/27 05:29:13;;;;;;;1.20;1.10;;;20.80;72.60;;;21.44;nan;101070.81;4983983;28;21017;-69
2023/06/27 05:31:40;;;;;;;1.93;1.20;;;20.90;72.60;;;21.61;nan;101075.03;4984754;28;20626;-67
2023/06/27 05:34:08;;;;;;;1.20;1.10;;;21.10;72.20;;;21.84;nan;101077.00;4971777;28;20645;-70
2023/06/27 05:36:35;;;;;;;1.17;1.17;;;21.30;71.90;;;22.06;nan;101078.91;4994652;28;20680;-67
2023/06/27 05:39:02;;;;;;;1.10;1.10;;;21.50;71.20;;;22.14;nan;101082.34;4992563;28;21343;-67
2023/06/27 05:41:30;;;;;;;1.17;1.07;;;21.60;70.70;;;22.17;nan;101081.16;5001378;28;20656;-67
2023/06/27 05:43:57;;;;;;;1.30;1.20;;;21.70;70.90;;;22.19;nan;101079.19;4995601;28;21233;-67
2023/06/27 05:46:24;;;;;;;1.43;1.33;;;21.70;70.90;;;22.22;nan;101074.34;4990750;28;20662;-67
2023/06/27 05:48:51;;;;;;;1.20;1.20;;;21.70;70.80;;;22.27;nan;101082.63;4973491;28;20638;-66
2023/06/27 05:51:18;;;;;;;1.30;1.20;;;21.80;70.90;;;22.37;nan;101080.56;4991861;28;20641;-67
2023/06/27 05:53:45;;;;;;;2.03;1.10;;;21.80;70.50;;;22.40;nan;101082.03;5004429;28;20977;-68
2023/06/27 05:56:12;;;;;;;1.40;1.33;;;21.90;70.70;;;22.45;nan;101084.16;4989808;28;20651;-67
2023/06/27 05:58:39;;;;;;;2.93;1.30;;;21.90;70.50;;;22.50;nan;101084.47;4971115;28;20674;-67
2023/06/27 06:01:06;;;;;;;1.67;1.03;;;22.00;70.20;;;22.52;nan;101077.97;4981243;28;20622;-68
2023/06/27 06:03:33;;;;;;;1.00;1.00;;;22.00;70.20;;;22.62;nan;101089.22;4989274;28;20635;-67
2023/06/27 06:06:00;;;;;;;1.20;1.20;;;22.10;70.10;;;22.88;nan;101086.19;4989477;28;20658;-66
2023/06/27 06:08:27;;;;;;;1.40;1.33;;;22.30;70.20;;;23.28;nan;101087.66;4992978;28;20623;-67
2023/06/27 06:10:54;;;;;;;0.80;0.80;;;22.60;69.70;;;23.64;nan;101081.47;4991358;28;20642;-67
2023/06/27 06:13:21;;;;;;;2.33;1.20;;;23.00;68.80;;;24.05;nan;101075.69;4989287;28;21168;-67
2023/06/27 06:15:48;;;;;;;1.63;1.20;;;23.40;67.80;;;24.58;nan;101089.44;4992903;28;20657;-68
2023/06/27 06:18:15;;;;;;;1.23;1.20;;;23.90;66.90;;;24.82;nan;101087.41;4986953;28;20696;-68
2023/06/27 06:20:42;;;;;;;1.60;1.50;;;24.20;65.50;;;24.92;nan;101087.91;4988171;28;20626;-67
2023/06/27 06:23:09;;;;;;;2.60;1.30;;;24.40;64.90;;;24.92;nan;101069.22;4981599;28;20654;-68
2023/06/27 06:25:36;;;;;;;3.47;1.00;;;24.40;65.10;;;25.06;nan;101077.19;4983698;28;20674;-68
2023/06/27 06:28:03;;;;;;;1.00;1.00;;;24.50;64.60;;;25.23;nan;101077.72;4981912;28;20634;-69
2023/06/27 06:30:30;;;;;;;1.20;1.10;;;24.70;64.20;;;25.46;nan;101085.47;4982263;28;20648;-67
2023/06/27 06:32:57;;;;;;;1.53;1.10;;;24.90;64.00;;;25.56;nan;101077.94;4984416;28;20662;-67
2023/06/27 06:35:24;;;;;;;1.00;1.00;;;25.00;63.50;;;25.62;nan;101082.53;4982415;28;20678;-68
2023/06/27 06:37:51;;;;;;;1.20;1.20;;;25.00;63.20;;;25.59;nan;101093.59;4982953;28;21046;-67
2023/06/27 06:40:18;;;;;;;1.20;1.10;;;25.00;63.30;;;25.57;nan;101090.28;4986461;28;20641;-68
2023/06/27 06:42:45;;;;;;;1.00;0.93;;;25.00;63.30;;;26.05;nan;101095.47;5002656;28;20634;-68
2023/06/27 06:45:12;;;;;;;1.03;1.03;;;25.30;63.00;;;26.79;nan;101090.97;4997595;28;20662;-67
2023/06/27 06:47:39;;;;;;;1.27;1.23;;;26.10;62.20;;;27.68;nan;101102.09;5005721;28;20614;-67
2023/06/27 06:50:07;;;;;;;1.07;0.90;;;27.00;60.70;;;28.48;nan;101095.34;4992762;28;20704;-67
2023/06/27 06:52:34;;;;;;;1.20;1.03;;;27.80;58.90;;;29.34;nan;101099.09;4993937;28;21207;-67
2023/06/27 06:55:01;;;;;;;1.00;1.00;;;28.80;57.50;;;30.34;nan;101099.41;4991460;28;20646;-67
2023/06/27 06:57:28;;;;;;;1.40;1.40;;;29.60;56.50;;;31.27;nan;101095.06;5011467;28;21345;-67
2023/06/27 06:59:55;;;;;;;1.07;1.07;;;30.60;54.80;;;31.91;nan;101096.75;4995357;28;20645;-67
2023/06/27 07:02:22;;;;;;;0.90;0.90;;;31.30;52.90;;;32.69;nan;101104.25;4992566;28;20632;-67
2023/06/27 07:04:49;;;;;;;1.33;1.10;;;32.10;52.10;;;32.89;nan;101105.38;5003378;28;20629;-68
2023/06/27 07:07:16;;;;;;;1.13;1.10;;;32.40;51.20;;;33.39;nan;101110.78;4993268;28;21215;-68
2023/06/27 07:09:43;;;;;;;2.83;1.20;;;32.90;50.40;;;34.01;nan;101111.38;4991926;28;20649;-68
2023/06/27 07:12:13;;;;;;;1.03;0.93;;;33.50;50.20;;;34.45;nan;101104.03;4993755;28;20634;-68
2023/06/27 07:14:40;;;;;;;0.83;0.83;;;34.00;49.00;;;34.95;nan;101111.81;4989211;28;20642;-67
2023/06/27 07:17:07;;;;;;;1.30;1.23;;;34.50;47.70;;;35.27;nan;101103.69;4995743;28;20673;-67
2023/06/27 07:19:34;;;;;;;1.00;1.00;;;34.90;47.40;;;36.00;nan;101106.28;4998608;28;20638;-67
2023/06/27 07:22:01;;;;;;;1.10;1.10;;;35.40;46.90;;;36.51;nan;101104.50;4990017;28;20626;-68
2023/06/27 07:24:28;;;;;;;1.07;1.07;;;36.00;46.20;;;37.07;nan;101100.75;4984852;28;20640;-68
2023/06/27 07:26:55;;;;;;;1.83;1.27;;;36.50;45.90;;;37.53;nan;101104.22;4997044;28;21050;-68
2023/06/27 07:29:22;;;;;;;1.70;1.60;;;36.90;45.40;;;37.51;nan;101105.56;4990210;28;20641;-67
2023/06/27 07:31:49;;;;;;;1.30;1.20;;;37.00;44.90;;;37.90;nan;101107.38;4993766;28;20633;-67
2023/06/27 07:34:16;;;;;;;2.33;1.40;;;37.30;45.00;;;38.32;nan;101106.06;4988183;28;20654;-68
2023/06/27 07:36:43;;;;;;;2.83;1.33;;;37.80;44.40;;;38.72;nan;101097.63;4992179;28;20673;-67
2023/06/27 07:39:10;;;;;;;0.90;0.90;;;38.20;43.70;;;39.11;nan;101090.16;4991602;28;21045;-66
2023/06/27 07:41:41;;;;;;;0.90;0.90;;;38.80;42.80;;;39.17;nan;101082.75;4971413;28;20633;-67
2023/06/27 07:44:08;;;;;;;1.20;1.20;;;39.00;43.00;;;39.71;nan;101085.19;4991291;28;20634;-67
2023/06/27 07:46:35;;;;;;;1.40;1.20;;;39.40;42.50;;;40.12;nan;101083.56;4992485;28;20668;-68
2023/06/27 07:49:03;;;;;;;1.23;1.13;;;39.80;42.10;;;39.88;nan;101080.03;5005541;28;20645;-68
2023/06/27 07:51:31;;;;;;;1.13;1.03;;;39.90;40.90;;;39.81;nan;101072.19;4992316;28;20649;-66
2023/06/27 07:54:00;;;;;;;1.47;1.40;;;39.70;41.10;;;40.16;nan;101074.47;4990393;28;20641;-68
2023/06/27 07:56:27;;;;;;;4.30;1.27;;;39.90;41.20;;;40.37;nan;101068.69;4991214;28;20666;-68
2023/06/27 07:58:54;;;;;;;1.20;1.20;;;40.20;40.90;;;40.34;nan;101074.75;4991998;28;20646;-68
2023/06/27 08:01:21;;;;;;;1.13;1.03;;;40.10;40.90;;;40.11;nan;101071.81;4990776;28;20638;-68
2023/06/27 08:03:51;;;;;;;1.40;1.30;;;39.80;40.70;;;40.29;nan;101067.44;4974073;28;20614;-67
2023/06/27 08:06:18;;;;;;;1.30;1.27;;;39.90;40.90;;;40.67;nan;101063.56;4990863;28;20673;-68
2023/06/27 08:08:45;;;;;;;1.30;1.20;;;40.20;40.70;;;40.38;nan;101065.63;5000745;28;20668;-68
2023/06/27 08:11:12;;;;;;;1.87;1.30;;;40.20;40.10;;;40.60;nan;101060.41;5011368;28;20612;-67
2023/06/27 08:13:41;;;;;;;1.10;1.10;;;40.50;40.20;;;40.97;nan;101060.31;4994994;28;20642;-67
2023/06/27 08:16:11;;;;;;;1.00;1.00;;;40.90;40.20;;;41.30;nan;101063.00;4974598;28;20641;-68
2023/06/27 08:18:39;;;;;;;1.03;1.00;;;41.30;39.80;;;41.94;nan;101053.72;4990688;28;20720;-68
2023/06/27 08:21:06;;;;;;;1.20;1.20;;;41.80;39.20;;;42.50;nan;101066.97;4975252;28;20586;-68
2023/06/27 08:23:33;;;;;;;2.57;1.33;;;42.40;38.80;;;42.39;nan;101058.97;4972198;28;20991;-66
2023/06/27 08:26:00;;;;;;;1.10;1.10;;;42.40;39.00;;;42.23;nan;101063.19;4991948;28;21022;-66
2023/06/27 08:28:27;;;;;;;1.20;1.20;;;42.30;38.80;;;40.90;nan;101046.22;4993361;28;20657;-68
2023/06/27 08:30:55;;;;;;;1.20;1.20;;;41.30;38.70;;;39.01;nan;101043.88;4989859;28;20648;-66
2023/06/27 08:33:23;;;;;;;1.10;1.10;;;39.50;39.70;;;37.32;nan;101043.56;4987163;28;20622;-67
2023/06/27 08:35:50;;;;;;;1.20;1.20;;;37.70;40.70;;;35.74;nan;101040.16;4994783;28;20681;-66
2023/06/27 08:38:17;;;;;;;1.40;1.30;;;36.10;41.80;;;34.52;nan;101028.81;4985937;28;20675;-67
2023/06/27 08:40:46;;;;;;;1.23;1.23;;;34.80;42.90;;;33.63;nan;101028.34;4991485;28;20639;-66
2023/06/27 08:43:13;;;;;;;1.03;1.03;;;33.70;43.70;;;32.98;nan;101022.00;4979537;28;20638;-66
2023/06/27 08:45:41;;;;;;;4.73;1.40;;;32.90;44.50;;;33.04;nan;101015.63;4990366;28;20740;-67
2023/06/27 08:48:14;;;;;;;1.53;1.10;;;32.80;44.90;;;33.24;nan;101015.09;4988178;28;20641;-67
2023/06/27 08:50:42;;;;;;;1.27;1.27;;;32.90;44.80;;;34.24;nan;101021.75;4982101;28;20766;-66
2023/06/27 08:53:19;;;;;;;1.20;1.10;;;33.70;44.70;;;35.45;nan;101016.41;4969935;28;21194;-67
2023/06/27 08:56:10;;;;;;;1.87;1.40;;;34.80;43.40;;;36.67;nan;101021.06;4991053;28;20666;-67
2023/06/27 08:58:51;;;;;;;0.90;0.90;;;35.80;42.60;;;38.26;nan;101014.53;4987753;28;20669;-68
2023/06/27 09:01:23;;;;;;;1.50;1.40;;;37.50;41.50;;;39.56;nan;101017.09;4991196;28;20778;-67
2023/06/27 09:03:52;;;;;;;1.10;1.10;;;38.90;40.50;;;40.04;nan;101024.09;4980207;28;20642;-70
2023/06/27 09:06:19;;;;;;;1.27;1.27;;;39.50;39.90;;;40.43;nan;101018.28;4990335;28;20669;-66
2023/06/27 09:08:49;;;;;;;1.77;1.50;;;40.00;39.70;;;40.46;nan;101026.72;4984400;28;20614;-66
2023/06/27 09:11:16;;;;;;;1.47;1.47;;;40.20;39.70;;;39.20;nan;101012.06;4989530;28;20656;-67
2023/06/27 09:13:43;;;;;;;2.57;1.50;;;39.30;40.00;;;37.87;nan;101018.03;4987258;28;20630;-68
2023/06/27 09:16:11;;;;;;;3.37;1.40;;;38.00;40.90;;;36.12;nan;101002.81;4990471;28;20673;-69
2023/06/27 09:18:38;;;;;;;1.10;1.10;;;36.40;41.50;;;34.82;nan;100996.50;4994353;28;20681;-67
2023/06/27 09:21:06;;;;;;;1.57;1.47;;;34.90;42.50;;;33.95;nan;100989.72;4969812;28;20717;-67
2023/06/27 09:23:33;;;;;;;1.50;1.37;;;33.90;44.10;;;33.29;nan;101002.44;5000436;28;21187;-68
2023/06/27 09:26:12;;;;;;;1.33;1.10;;;33.20;44.30;;;34.17;nan;100990.53;5000205;28;20670;-69
2023/06/27 09:28:50;;;;;;;1.30;1.30;;;33.70;44.10;;;34.32;nan;101001.50;4965616;28;20648;-68
2023/06/27 09:31:19;;;;;;;1.10;1.10;;;34.00;43.50;;;35.10;nan;100992.63;4974125;28;20974;-68
2023/06/27 09:33:47;;;;;;;1.13;1.13;;;34.60;43.10;;;36.21;nan;100996.56;4999930;28;20642;-68
2023/06/27 09:36:37;;;;;;;1.30;1.20;;;35.70;42.40;;;36.81;nan;100989.50;4996982;28;21049;-68
2023/06/27 09:39:09;;;;;;;1.50;1.40;;;36.40;42.00;;;36.52;nan;100984.63;4988317;28;20642;-68
2023/06/27 09:41:41;;;;;;;1.30;1.30;;;36.30;41.50;;;36.46;nan;100983.00;4990416;28;20642;-68
2023/06/27 09:44:15;;;;;;;1.60;1.30;;;36.20;41.30;;;36.68;nan;100987.34;4982629;28;20638;-65
2023/06/27 09:46:45;;;;;;;1.20;1.10;;;36.40;41.40;;;36.95;nan;100983.25;4974690;28;20716;-68
2023/06/27 09:49:14;;;;;;;3.83;1.60;;;36.60;41.20;;;36.56;nan;100984.94;4989612;28;20681;-65
2023/06/27 09:51:49;;;;;;;1.17;1.17;;;36.40;41.50;;;35.80;nan;100986.69;4997362;28;20646;-67
2023/06/27 09:54:25;;;;;;;1.93;1.53;;;35.70;41.90;;;34.86;nan;100989.47;4992145;28;20676;-68
2023/06/27 09:56:54;;;;;;;1.40;1.30;;;34.70;42.50;;;33.98;nan;100989.22;4998618;28;21024;-68
2023/06/27 09:59:23;;;;;;;1.10;0.97;;;33.80;43.50;;;33.75;nan;100989.50;4988447;28;21295;-68
2023/06/27 10:01:52;;;;;;;1.33;1.00;;;33.50;43.90;;;33.69;nan;100982.41;4989204;28;20594;-67
2023/06/27 10:04:20;;;;;;;0.73;0.73;;;33.30;44.00;;;32.90;nan;100976.47;4987083;28;20634;-69
2023/06/27 10:07:04;;;;;;;1.20;1.20;;;32.70;44.40;;;32.19;nan;100984.47;4996752;28;20653;-69
2023/06/27 10:09:32;;;;;;;1.67;1.57;;;31.90;45.20;;;31.63;nan;100980.69;4987697;28;20638;-68
2023/06/27 10:11:59;;;;;;;1.00;1.00;;;31.30;45.90;;;30.97;nan;100974.91;4991056;28;21016;-68
2023/06/27 10:14:27;;;;;;;1.60;1.50;;;30.70;46.30;;;30.33;nan;100976.63;4987189;28;20627;-67
2023/06/27 10:16:54;;;;;;;2.17;1.57;;;30.00;47.20;;;30.03;nan;100978.47;4994459;28;20685;-68
2023/06/27 10:19:23;;;;;;;1.23;1.23;;;29.60;47.80;;;29.54;nan;100984.06;4997786;28;20669;-67
2023/06/27 10:21:50;;;;;;;1.57;1.33;;;29.10;48.10;;;29.33;nan;100982.69;5003029;28;20625;-67
2023/06/27 10:24:18;;;;;;;0.90;0.90;;;28.90;48.70;;;29.25;nan;100968.72;4990370;28;20637;-67
2023/06/27 10:26:51;;;;;;;1.13;1.07;;;28.80;48.90;;;29.18;nan;100968.78;4984856;28;20672;-68
2023/06/27 10:29:18;;;;;;;1.73;1.40;;;28.70;49.10;;;29.17;nan;100960.94;4996923;28;20634;-68
2023/06/27 10:31:45;;;;;;;1.30;1.30;;;28.60;49.10;;;29.05;nan;100969.72;4995881;28;20641;-67